createdAt,value
2022-10-18T05:58:15.948Z,9.24
2022-10-18T06:00:43.313Z,9.32
2022-10-18T06:03:10.613Z,9.49
2022-10-18T06:08:10.644Z,9.79
2022-10-18T06:10:40.328Z,9.94
2022-10-18T06:13:07.342Z,10.14
2022-10-18T06:15:34.349Z,10.26
2022-10-18T06:18:01.692Z,10.37
2022-10-18T06:20:28.726Z,10.51
2022-10-18T06:22:55.786Z,10.63
2022-10-18T06:25:23.085Z,10.79
2022-10-18T06:27:50.109Z,10.90
2022-10-18T06:30:17.206Z,10.97
2022-10-18T06:32:44.486Z,11.10
2022-10-18T06:35:11.524Z,11.21
2022-10-18T06:37:38.519Z,11.35
2022-10-18T06:40:06.673Z,11.47
2022-10-18T06:42:34.146Z,11.63
2022-10-18T06:45:01.463Z,11.79
2022-10-18T06:47:28.779Z,11.89
2022-10-18T06:49:55.781Z,12.09
2022-10-18T06:52:25.663Z,12.15
2022-10-18T06:54:53.958Z,12.22
2022-10-18T06:57:21.535Z,12.23
2022-10-18T06:59:50.013Z,12.23
2022-10-18T07:02:17.532Z,12.36
2022-10-18T07:04:44.547Z,12.65
2022-10-18T07:07:11.577Z,12.69
2022-10-18T07:09:38.909Z,12.83
2022-10-18T07:12:06.212Z,12.96
2022-10-18T07:14:33.214Z,12.97
2022-10-18T07:17:00.541Z,12.86
2022-10-18T07:19:27.590Z,13.01
2022-10-18T07:21:54.639Z,13.03
2022-10-18T07:24:21.944Z,13.10
2022-10-18T07:26:48.998Z,13.21
2022-10-18T07:29:16.097Z,13.22
2022-10-18T07:31:43.480Z,13.29
2022-10-18T07:34:14.604Z,13.30
2022-10-18T07:36:42.112Z,13.18
2022-10-18T07:39:10.294Z,13.20
2022-10-18T07:41:37.404Z,13.26
2022-10-18T07:44:04.654Z,13.27
2022-10-18T07:46:31.977Z,13.20
2022-10-18T07:48:59.601Z,13.20
2022-10-18T07:51:28.016Z,13.23
2022-10-18T07:53:55.293Z,13.34
2022-10-18T07:56:22.528Z,13.38
2022-10-18T07:58:52.223Z,13.23
2022-10-18T08:01:21.170Z,13.20
2022-10-18T08:03:48.790Z,13.22
2022-10-18T08:06:18.514Z,13.45
2022-10-18T08:08:46.119Z,13.58
2022-10-18T08:11:19.510Z,13.61
2022-10-18T08:13:46.794Z,13.46
2022-10-18T08:16:17.475Z,13.43
2022-10-18T08:18:44.545Z,13.51
2022-10-18T08:21:12.842Z,13.57
2022-10-18T08:23:40.313Z,13.61
2022-10-18T08:26:09.534Z,13.84
2022-10-18T08:28:37.092Z,13.93
2022-10-18T08:31:10.688Z,14.13
2022-10-18T08:33:39.682Z,14.20
2022-10-18T08:36:10.969Z,14.20
2022-10-18T08:38:39.251Z,14.40
2022-10-18T08:41:39.487Z,14.44
2022-10-18T08:44:19.496Z,14.45
2022-10-18T08:46:52.326Z,14.52
2022-10-18T08:49:52.207Z,14.54
2022-10-18T08:52:31.428Z,14.66
2022-10-18T08:55:04.715Z,14.84
2022-10-18T08:57:33.238Z,14.78
2022-10-18T09:00:02.407Z,14.86
2022-10-18T09:02:46.735Z,15.00
2022-10-18T09:05:30.113Z,15.16
2022-10-18T09:08:22.376Z,15.18
2022-10-18T09:11:27.139Z,15.25
2022-10-18T09:14:01.085Z,15.30
2022-10-18T09:16:34.486Z,15.43
2022-10-18T09:19:18.480Z,15.47
2022-10-18T09:22:13.746Z,15.40
2022-10-18T09:25:10.000Z,15.63
2022-10-18T09:28:03.799Z,15.64
2022-10-18T09:31:13.293Z,15.94
2022-10-18T09:34:04.626Z,15.99
2022-10-18T09:36:52.113Z,16.14
2022-10-18T09:39:39.573Z,16.04
2022-10-18T09:42:34.812Z,16.04
2022-10-18T09:45:31.599Z,15.78
2022-10-18T09:48:30.158Z,15.98
2022-10-18T09:51:22.326Z,15.98
2022-10-18T09:54:13.734Z,16.14
2022-10-18T09:57:08.333Z,15.98
2022-10-18T09:59:55.139Z,16.11
2022-10-18T10:02:42.238Z,15.93
2022-10-18T10:05:29.372Z,16.11
2022-10-18T10:08:16.118Z,16.25
2022-10-18T10:11:03.374Z,16.34
2022-10-18T10:13:50.215Z,16.29
2022-10-18T10:16:56.006Z,16.21
2022-10-18T10:20:03.882Z,16.22
2022-10-18T10:22:52.048Z,16.13
2022-10-18T10:25:38.926Z,16.26
2022-10-18T10:28:31.726Z,16.20
2022-10-18T10:31:24.736Z,16.48
2022-10-18T10:34:14.888Z,16.54
2022-10-18T10:37:02.671Z,16.73
2022-10-18T10:40:18.301Z,16.95
2022-10-18T10:43:18.096Z,16.89
2022-10-18T10:46:19.041Z,16.76
2022-10-18T10:49:39.235Z,16.80
2022-10-18T10:52:28.935Z,16.75
2022-10-18T10:55:35.388Z,16.71
2022-10-18T10:58:28.147Z,16.88
2022-10-18T11:01:25.672Z,17.00
2022-10-18T11:04:28.523Z,17.03
2022-10-18T11:07:30.538Z,16.99
2022-10-18T11:10:19.895Z,16.98
2022-10-18T11:13:53.403Z,16.83
2022-10-18T11:17:08.109Z,16.90
2022-10-18T11:20:09.668Z,17.17
2022-10-18T11:23:02.265Z,17.12
2022-10-18T11:25:41.791Z,17.17
2022-10-18T11:28:18.961Z,17.40
2022-10-18T11:30:51.597Z,17.53
2022-10-18T11:33:32.624Z,17.53
2022-10-18T11:36:18.514Z,17.75
2022-10-18T11:39:09.053Z,17.61
2022-10-18T11:41:42.335Z,17.75
2022-10-18T11:44:32.722Z,17.77
2022-10-18T11:47:37.016Z,17.79
2022-10-18T11:50:20.042Z,17.49
2022-10-18T11:52:59.388Z,17.56
2022-10-18T11:56:07.085Z,17.77
2022-10-18T11:58:51.136Z,17.59
2022-10-18T12:01:30.581Z,17.78
2022-10-18T12:04:09.505Z,17.77
2022-10-18T12:06:42.040Z,17.85
2022-10-18T12:09:41.734Z,18.02
2022-10-18T12:12:19.489Z,18.11
2022-10-18T12:14:51.830Z,17.87
2022-10-18T12:17:41.813Z,17.88
2022-10-18T12:20:18.566Z,17.77
2022-10-18T12:23:03.127Z,17.70
2022-10-18T12:25:34.307Z,17.85
2022-10-18T12:28:31.726Z,17.96
2022-10-18T12:31:07.999Z,17.88
2022-10-18T12:33:40.684Z,17.82
2022-10-18T12:36:29.027Z,17.86
2022-10-18T12:39:01.927Z,17.85
2022-10-18T12:41:31.629Z,17.99
2022-10-18T12:44:33.706Z,18.20
2022-10-18T12:47:03.299Z,18.13
2022-10-18T12:49:36.741Z,17.93
2022-10-18T12:52:25.649Z,18.14
2022-10-18T12:55:02.828Z,18.01
2022-10-18T12:57:51.678Z,17.91
2022-10-18T13:00:41.825Z,17.89
2022-10-18T13:03:11.976Z,18.19
2022-10-18T13:05:56.286Z,18.09
2022-10-18T13:08:34.072Z,18.33
2022-10-18T13:11:10.276Z,18.02
2022-10-18T13:14:02.041Z,17.97
2022-10-18T13:16:36.700Z,18.20
2022-10-18T13:19:19.233Z,18.46
2022-10-18T13:21:49.058Z,18.68
2022-10-18T13:24:37.350Z,18.66
2022-10-18T13:27:24.557Z,18.46
2022-10-18T13:30:15.960Z,18.60
2022-10-18T13:33:03.926Z,18.87
2022-10-18T13:35:54.927Z,18.57
2022-10-18T13:38:37.072Z,18.36
2022-10-18T13:41:06.009Z,18.65
2022-10-18T13:44:11.690Z,18.52
2022-10-18T13:46:38.916Z,18.61
2022-10-18T13:49:39.700Z,18.86
2022-10-18T13:52:40.344Z,19.04
2022-10-18T13:55:38.520Z,19.12
2022-10-18T13:58:22.226Z,18.94
2022-10-18T14:00:58.268Z,18.94
2022-10-18T14:03:56.322Z,18.86
2022-10-18T14:06:28.523Z,18.91
2022-10-18T14:09:03.369Z,19.10
2022-10-18T14:11:44.142Z,18.80
2022-10-18T14:14:38.147Z,18.69
2022-10-18T14:17:16.804Z,18.93
2022-10-18T14:19:50.449Z,19.13
2022-10-18T14:22:26.910Z,19.24
2022-10-18T14:24:58.317Z,19.22
2022-10-18T14:27:34.327Z,19.25
2022-10-18T14:30:17.196Z,19.21
2022-10-18T14:32:49.278Z,19.19
2022-10-18T14:35:32.865Z,19.22
2022-10-18T14:38:00.568Z,18.87
2022-10-18T14:40:45.798Z,18.71
2022-10-18T14:43:15.452Z,18.53
2022-10-18T14:45:43.098Z,18.47
2022-10-18T14:48:18.470Z,18.27
2022-10-18T14:50:48.937Z,18.24
2022-10-18T14:53:18.690Z,18.05
2022-10-18T14:55:54.140Z,18.01
2022-10-18T14:58:21.237Z,18.07
2022-10-18T15:00:48.811Z,17.92
2022-10-18T15:03:16.965Z,17.78
2022-10-18T15:06:02.507Z,17.76
2022-10-18T15:08:36.906Z,17.55
2022-10-18T15:11:04.668Z,17.49
2022-10-18T15:13:32.551Z,17.41
2022-10-18T15:15:59.763Z,17.34
2022-10-18T15:18:27.614Z,17.24
2022-10-18T15:21:27.494Z,17.16
2022-10-18T15:23:57.633Z,17.05
2022-10-18T15:26:29.473Z,16.92
2022-10-18T15:29:01.450Z,16.77
2022-10-18T15:31:34.677Z,16.62
2022-10-18T15:34:20.508Z,16.43
2022-10-18T15:36:51.032Z,16.21
2022-10-18T15:39:21.469Z,16.04
2022-10-18T15:41:55.182Z,15.81
2022-10-18T15:44:27.854Z,15.63
2022-10-18T15:46:57.440Z,15.42
2022-10-18T15:49:24.408Z,15.23
2022-10-18T15:52:33.947Z,15.03
2022-10-18T15:55:22.930Z,14.76
2022-10-18T15:57:49.967Z,14.58
2022-10-18T16:00:20.045Z,14.44
2022-10-18T16:02:47.332Z,14.24
2022-10-18T16:05:19.014Z,14.06
2022-10-18T16:07:51.386Z,13.87
2022-10-18T16:10:18.746Z,13.75
2022-10-18T16:12:45.837Z,13.61
2022-10-18T16:15:12.884Z,13.45
2022-10-18T16:17:40.166Z,13.34
2022-10-18T16:20:09.930Z,13.24
2022-10-18T16:22:37.161Z,13.24
2022-10-18T16:25:04.901Z,13.11
2022-10-18T16:27:31.917Z,12.96
2022-10-18T16:29:58.943Z,12.85
2022-10-18T16:32:26.588Z,12.73
2022-10-18T16:34:53.597Z,12.58
2022-10-18T16:37:20.569Z,12.51
2022-10-18T16:39:48.068Z,12.42
2022-10-18T16:42:15.057Z,12.34
2022-10-18T16:44:42.117Z,12.23
2022-10-18T16:47:11.382Z,12.17
2022-10-18T16:49:39.806Z,12.09
2022-10-18T16:52:06.805Z,12.02
2022-10-18T16:54:34.959Z,11.99
2022-10-18T16:57:01.951Z,11.85
2022-10-18T16:59:31.184Z,11.72
2022-10-18T17:01:58.677Z,11.64
2022-10-18T17:04:25.767Z,11.52
2022-10-18T17:06:53.997Z,11.44
2022-10-18T17:09:21.283Z,11.38
2022-10-18T17:11:48.278Z,11.29
2022-10-18T17:14:15.266Z,11.27
2022-10-18T17:16:44.534Z,11.26
2022-10-18T17:19:14.878Z,11.22
2022-10-18T17:21:41.834Z,11.13
2022-10-18T17:24:09.278Z,11.09
2022-10-18T17:26:36.267Z,11.03
2022-10-18T17:29:05.761Z,10.99
2022-10-18T17:31:33.462Z,10.95
2022-10-18T17:34:01.929Z,11.03
2022-10-18T17:36:30.937Z,10.96
2022-10-18T17:38:58.463Z,10.93
2022-10-18T17:41:26.193Z,10.74
2022-10-18T17:43:53.390Z,10.61
2022-10-18T17:46:20.925Z,10.55
2022-10-18T17:48:47.953Z,10.56
2022-10-18T17:51:16.669Z,10.56
2022-10-18T17:53:44.341Z,10.53
2022-10-18T17:56:12.383Z,10.45
2022-10-18T17:58:39.639Z,10.40
2022-10-18T18:01:19.055Z,10.35
2022-10-18T18:03:47.899Z,10.32
2022-10-18T18:06:20.213Z,10.32
2022-10-18T18:08:48.600Z,10.39
2022-10-18T18:11:16.990Z,10.38
2022-10-18T18:13:44.012Z,10.35
2022-10-18T18:16:12.346Z,10.29
2022-10-18T18:18:39.325Z,10.23
2022-10-18T18:21:06.499Z,10.21
2022-10-18T18:23:33.817Z,10.17
2022-10-18T18:26:00.821Z,10.12
2022-10-18T18:28:27.947Z,10.06
2022-10-18T18:30:55.306Z,10.00
2022-10-18T18:33:22.322Z,10.01
2022-10-18T18:35:56.893Z,10.02
2022-10-18T18:38:24.834Z,10.02
2022-10-18T18:41:13.208Z,10.02
2022-10-18T18:43:42.802Z,10.00
2022-10-18T18:46:10.294Z,9.95
2022-10-18T18:48:37.457Z,9.92
2022-10-18T18:51:06.251Z,9.88
2022-10-18T18:53:33.280Z,9.82
2022-10-18T18:56:08.520Z,9.72
2022-10-18T18:58:37.996Z,9.71
2022-10-18T19:01:14.717Z,9.67
2022-10-18T19:03:43.060Z,9.66
2022-10-18T19:06:16.233Z,9.68
2022-10-18T19:08:47.178Z,9.70
2022-10-18T19:11:18.022Z,9.71
2022-10-18T19:13:45.591Z,9.75
2022-10-18T19:16:25.521Z,9.69
2022-10-18T19:19:07.136Z,9.61
2022-10-18T19:21:39.352Z,9.56
2022-10-18T19:24:07.384Z,9.53
2022-10-18T19:26:44.890Z,9.40
2022-10-18T19:29:21.287Z,9.36
2022-10-18T19:31:49.505Z,9.31
2022-10-18T19:34:17.799Z,9.27
2022-10-18T19:36:46.383Z,9.25
2022-10-18T19:39:24.839Z,9.28
2022-10-18T19:41:55.271Z,9.22
2022-10-18T19:44:23.281Z,9.22
2022-10-18T19:46:50.838Z,9.22
2022-10-18T19:49:18.238Z,9.20
2022-10-18T19:51:45.401Z,9.18
2022-10-18T19:54:14.095Z,9.17
2022-10-18T19:56:42.220Z,9.14
2022-10-18T19:59:10.110Z,9.18
2022-10-18T20:01:37.587Z,9.22
2022-10-18T20:04:05.462Z,9.21
2022-10-18T20:06:32.458Z,9.16
2022-10-18T20:08:59.494Z,9.11
2022-10-18T20:11:28.684Z,9.10
2022-10-18T20:13:56.220Z,9.08
2022-10-18T20:16:28.425Z,9.08
2022-10-18T20:19:00.752Z,9.11
2022-10-18T20:21:29.314Z,9.12
2022-10-18T20:23:56.617Z,9.12
2022-10-18T20:26:25.539Z,9.09
2022-10-18T20:28:57.781Z,9.09
2022-10-18T20:31:30.332Z,9.15
2022-10-18T20:34:03.269Z,9.10
2022-10-18T20:36:31.890Z,9.06
2022-10-18T20:38:59.865Z,9.04
2022-10-18T20:41:29.352Z,9.01
2022-10-18T20:43:56.562Z,9.03
2022-10-18T20:46:24.078Z,9.08
2022-10-18T20:48:51.837Z,9.15
2022-10-18T20:51:19.688Z,9.09
2022-10-18T20:53:47.013Z,9.05
2022-10-18T20:56:16.485Z,9.12
2022-10-18T20:58:46.081Z,9.09
2022-10-18T21:01:16.673Z,9.05
2022-10-18T21:03:45.223Z,9.03
2022-10-18T21:06:23.280Z,9.04
2022-10-18T21:08:59.416Z,9.02
2022-10-18T21:11:28.141Z,9.00
2022-10-18T21:14:00.213Z,9.02
2022-10-18T21:16:28.752Z,9.02
2022-10-18T21:18:56.072Z,9.04
2022-10-18T21:21:24.286Z,9.07
2022-10-18T21:23:52.296Z,9.15
2022-10-18T21:26:21.816Z,9.19
2022-10-18T21:28:53.480Z,9.19
2022-10-18T21:31:23.085Z,9.23
2022-10-18T21:33:58.590Z,9.26
2022-10-18T21:36:29.943Z,9.24
2022-10-18T21:38:56.929Z,9.24
2022-10-18T21:41:24.508Z,9.23
2022-10-18T21:43:54.576Z,9.22
2022-10-18T21:46:23.066Z,9.22
2022-10-18T21:48:52.450Z,9.31
2022-10-18T21:51:22.214Z,9.34
2022-10-18T21:53:51.473Z,9.34
2022-10-18T21:56:26.499Z,9.36
2022-10-18T21:58:54.111Z,9.47
2022-10-18T22:01:32.141Z,9.49
2022-10-18T22:04:01.221Z,9.53
2022-10-18T22:06:30.328Z,9.61
2022-10-18T22:08:59.228Z,9.65
2022-10-18T22:11:32.815Z,9.82
2022-10-18T22:13:59.881Z,10.04
2022-10-18T22:16:27.669Z,10.26
2022-10-18T22:18:58.356Z,10.54
2022-10-18T22:21:25.726Z,10.64
2022-10-18T22:23:54.428Z,10.71
2022-10-18T22:26:35.781Z,10.95
2022-10-18T22:29:17.756Z,11.07
2022-10-18T22:31:47.079Z,11.27
2022-10-18T22:34:18.092Z,11.35
2022-10-18T22:36:45.834Z,11.47
2022-10-18T22:39:14.463Z,11.56
2022-10-18T22:41:42.393Z,11.58
2022-10-18T22:44:12.373Z,11.65
2022-10-18T22:46:40.541Z,11.74
2022-10-18T22:49:08.140Z,11.84
2022-10-18T22:54:07.564Z,11.99
2022-10-18T22:56:34.584Z,12.07
2022-10-18T22:59:01.630Z,12.15
2022-10-18T23:01:28.929Z,12.22
2022-10-18T23:03:58.239Z,12.35
2022-10-18T23:06:30.791Z,12.44
2022-10-18T23:08:59.865Z,12.46
2022-10-18T23:11:27.797Z,12.46
2022-10-18T23:13:55.251Z,12.49
2022-10-18T23:16:22.759Z,12.40
2022-10-18T23:18:55.096Z,12.43
2022-10-18T23:21:24.462Z,12.37
2022-10-18T23:23:52.841Z,12.38
2022-10-18T23:26:23.168Z,12.39
2022-10-18T23:28:51.613Z,12.37
2022-10-18T23:31:24.748Z,12.41
2022-10-18T23:33:54.298Z,12.35
2022-10-18T23:36:22.123Z,12.34
2022-10-18T23:38:49.289Z,12.41
2022-10-18T23:41:17.501Z,12.43
2022-10-18T23:43:45.130Z,12.35
2022-10-18T23:46:13.208Z,12.30
2022-10-18T23:48:40.579Z,12.23
2022-10-18T23:51:08.037Z,12.18
2022-10-18T23:53:38.300Z,12.14
2022-10-18T23:56:08.356Z,12.19
2022-10-18T23:58:36.520Z,12.23
